Time;durP1;ratioP1;P1;durP2;ratioP2;P2;SDS_P1;SDS_P2;PMS_P1;PMS_P2;Temp;Humidity;BMP_temperature;BMP_pressure;BME280_temperature;BME280_humidity;BME280_pressure;Samples;Min_cycle;Max_cycle;Signal;HPM_P1;HPM_P2
2022/06/19 00:00:06;;;;;;;;;;;25.90;68.50;;;;;;5090149;28;20408;-81
2022/06/19 00:02:41;;;;;;;;;;;25.90;68.60;;;;;;5089866;28;20375;-82
2022/06/19 00:05:09;;;;;;;;;;;25.80;68.70;;;;;;5088971;28;19956;-81
2022/06/19 00:07:36;;;;;;;;;;;25.80;68.80;;;;;;5090574;28;19959;-81
2022/06/19 00:10:03;;;;;;;;;;;25.80;68.80;;;;;;5087385;28;19932;-81
2022/06/19 00:12:30;;;;;;;;;;;25.80;68.90;;;;;;5067051;28;19928;-81
2022/06/19 00:14:57;;;;;;;;;;;25.70;68.80;;;;;;5066301;28;19924;-81
2022/06/19 00:17:24;;;;;;;;;;;25.70;68.90;;;;;;5087014;28;19939;-81
2022/06/19 00:19:51;;;;;;;;;;;25.70;69.00;;;;;;5089567;28;19946;-81
2022/06/19 00:22:19;;;;;;;;;;;25.60;69.00;;;;;;5085614;28;20386;-81
2022/06/19 00:24:46;;;;;;;;;;;25.60;69.10;;;;;;5085322;28;20333;-81
2022/06/19 00:27:13;;;;;;;;;;;25.60;69.10;;;;;;5085327;28;19938;-81
2022/06/19 00:29:40;;;;;;;;;;;25.50;69.10;;;;;;5085249;28;20376;-81
2022/06/19 00:32:07;;;;;;;;;;;25.50;69.20;;;;;;5064028;28;20283;-81
2022/06/19 00:34:35;;;;;;;;;;;25.50;69.20;;;;;;5086746;28;19939;-81
2022/06/19 00:37:03;;;;;;;;;;;25.40;69.20;;;;;;5070010;28;19930;-81
2022/06/19 00:39:32;;;;;;;;;;;25.40;69.20;;;;;;5090121;28;20314;-81
2022/06/19 00:41:59;;;;;;;;;;;25.40;69.20;;;;;;5084143;28;20517;-81
2022/06/19 00:44:26;;;;;;;;;;;25.30;69.00;;;;;;5082990;28;19928;-82
2022/06/19 00:46:54;;;;;;;;;;;25.30;69.10;;;;;;5068517;28;19977;-81
2022/06/19 00:49:24;;;;;;;;;;;25.30;69.20;;;;;;5086738;28;20281;-81
2022/06/19 00:51:55;;;;;;;;;;;25.30;69.20;;;;;;5090479;28;19931;-81
2022/06/19 00:54:22;;;;;;;;;;;25.20;69.20;;;;;;5090177;28;20712;-81
2022/06/19 00:56:51;;;;;;;;;;;25.20;69.30;;;;;;5090778;28;19924;-81
2022/06/19 00:59:18;;;;;;;;;;;25.20;69.40;;;;;;5090615;28;19968;-81
2022/06/19 01:01:45;;;;;;;;;;;25.20;69.50;;;;;;5087302;28;19932;-82
2022/06/19 01:04:16;;;;;;;;;;;25.10;69.50;;;;;;5088106;28;19924;-81
2022/06/19 01:06:42;;;;;;;;;;;25.10;69.50;;;;;;5091138;28;19924;-81
2022/06/19 01:09:09;;;;;;;;;;;25.00;69.50;;;;;;5091943;28;20657;-81
2022/06/19 01:11:37;;;;;;;;;;;25.00;69.50;;;;;;5072040;28;20357;-82
2022/06/19 01:14:07;;;;;;;;;;;25.00;69.50;;;;;;5089602;28;19969;-81
2022/06/19 01:16:34;;;;;;;;;;;24.90;69.50;;;;;;5085569;28;19936;-82
2022/06/19 01:19:01;;;;;;;;;;;24.90;69.60;;;;;;5094575;28;19946;-81
2022/06/19 01:21:33;;;;;;;;;;;24.90;69.60;;;;;;5082117;28;20006;-82
2022/06/19 01:24:04;;;;;;;;;;;24.90;69.70;;;;;;5104063;28;19930;-82
2022/06/19 01:26:36;;;;;;;;;;;24.80;69.70;;;;;;5107350;28;19950;-82
2022/06/19 01:29:02;;;;;;;;;;;24.70;69.60;;;;;;5105558;28;20802;-81
2022/06/19 01:31:32;;;;;;;;;;;24.70;69.70;;;;;;5094237;28;19959;-82
2022/06/19 01:34:00;;;;;;;;;;;24.70;69.80;;;;;;5093271;28;19932;-82
2022/06/19 01:36:29;;;;;;;;;;;24.70;69.80;;;;;;5094508;28;19948;-82
2022/06/19 01:38:56;;;;;;;;;;;24.60;69.80;;;;;;5093489;28;19924;-82
2022/06/19 01:41:26;;;;;;;;;;;24.60;69.80;;;;;;5071890;28;19924;-82
2022/06/19 01:43:54;;;;;;;;;;;24.60;69.90;;;;;;5069915;28;20007;-82
2022/06/19 01:46:22;;;;;;;;;;;24.50;69.80;;;;;;5071501;28;20000;-82
2022/06/19 01:48:49;;;;;;;;;;;24.50;70.00;;;;;;5093298;28;19935;-81
2022/06/19 01:51:16;;;;;;;;;;;24.50;70.00;;;;;;5076213;28;19997;-82
2022/06/19 01:53:45;;;;;;;;;;;24.50;70.00;;;;;;5090902;28;19924;-82
2022/06/19 01:56:13;;;;;;;;;;;24.40;70.00;;;;;;5089107;28;19946;-82
2022/06/19 01:58:41;;;;;;;;;;;24.40;70.00;;;;;;5094126;28;19931;-82
2022/06/19 02:01:10;;;;;;;;;;;24.40;70.10;;;;;;5066087;28;20023;-82
2022/06/19 02:03:38;;;;;;;;;;;24.30;70.00;;;;;;5073849;28;20019;-82
2022/06/19 02:06:05;;;;;;;;;;;24.30;70.00;;;;;;5093655;28;19932;-81
2022/06/19 02:08:34;;;;;;;;;;;24.30;70.10;;;;;;5088146;28;20241;-82
2022/06/19 02:11:01;;;;;;;;;;;24.30;70.80;;;;;;5086831;28;20622;-82
2022/06/19 02:13:29;;;;;;;;;;;24.20;70.10;;;;;;5091771;28;20356;-82
2022/06/19 02:15:56;;;;;;;;;;;24.20;70.20;;;;;;5083083;28;19924;-82
2022/06/19 02:18:26;;;;;;;;;;;24.10;70.20;;;;;;5073904;28;20409;-82
2022/06/19 02:20:53;;;;;;;;;;;24.10;70.20;;;;;;5072053;28;20054;-82
2022/06/19 02:23:21;;;;;;;;;;;24.10;70.20;;;;;;5088796;28;20378;-82
2022/06/19 02:25:49;;;;;;;;;;;24.00;70.20;;;;;;5088924;28;20420;-82
2022/06/19 02:28:16;;;;;;;;;;;24.00;70.20;;;;;;5086817;28;19936;-82
2022/06/19 02:30:44;;;;;;;;;;;24.00;70.30;;;;;;5088229;28;19939;-82
2022/06/19 02:33:13;;;;;;;;;;;23.90;70.30;;;;;;5086654;28;20018;-82
2022/06/19 02:35:42;;;;;;;;;;;23.90;70.30;;;;;;5089077;28;19954;-82
2022/06/19 02:38:09;;;;;;;;;;;23.90;70.40;;;;;;5091133;28;19928;-82
2022/06/19 02:40:40;;;;;;;;;;;23.80;70.50;;;;;;5091590;28;19932;-82
2022/06/19 02:43:09;;;;;;;;;;;23.80;70.60;;;;;;5089250;28;19932;-81
2022/06/19 02:45:39;;;;;;;;;;;23.80;70.60;;;;;;5085645;28;19924;-82
2022/06/19 02:48:07;;;;;;;;;;;23.70;70.50;;;;;;5089119;28;19932;-82
2022/06/19 02:50:34;;;;;;;;;;;23.70;70.60;;;;;;5092520;28;19924;-81
2022/06/19 02:53:05;;;;;;;;;;;23.70;70.70;;;;;;5068858;28;19924;-82
2022/06/19 02:55:32;;;;;;;;;;;23.60;70.70;;;;;;5087638;28;19924;-82
2022/06/19 02:57:59;;;;;;;;;;;23.60;70.70;;;;;;5089643;28;19931;-82
2022/06/19 03:00:27;;;;;;;;;;;23.60;70.90;;;;;;5086366;28;20408;-82
2022/06/19 03:02:55;;;;;;;;;;;23.50;70.80;;;;;;5087919;28;20011;-81
2022/06/19 03:05:24;;;;;;;;;;;23.50;70.90;;;;;;5088890;28;19935;-82
2022/06/19 03:07:51;;;;;;;;;;;23.50;71.10;;;;;;5091064;28;19932;-82
2022/06/19 03:10:19;;;;;;;;;;;23.40;71.10;;;;;;5089649;28;19943;-82
2022/06/19 03:12:46;;;;;;;;;;;23.40;71.20;;;;;;5080233;28;19935;-82
2022/06/19 03:15:13;;;;;;;;;;;23.40;71.30;;;;;;5083786;28;19967;-82
2022/06/19 03:17:41;;;;;;;;;;;23.40;72.00;;;;;;5089863;28;19924;-81
2022/06/19 03:20:11;;;;;;;;;;;23.30;71.30;;;;;;5088808;28;19924;-82
2022/06/19 03:22:38;;;;;;;;;;;23.30;71.40;;;;;;5068013;28;19928;-82
2022/06/19 03:25:05;;;;;;;;;;;23.20;71.40;;;;;;5067012;28;19932;-82
2022/06/19 03:27:33;;;;;;;;;;;23.20;71.50;;;;;;5073358;28;19997;-82
2022/06/19 03:30:00;;;;;;;;;;;23.20;71.60;;;;;;5087318;28;19935;-82
2022/06/19 03:32:27;;;;;;;;;;;23.10;71.60;;;;;;5086078;28;19932;-81
2022/06/19 03:34:54;;;;;;;;;;;23.10;71.60;;;;;;5088560;28;19932;-82
2022/06/19 03:37:21;;;;;;;;;;;23.10;71.80;;;;;;5090048;28;19924;-82
2022/06/19 03:39:49;;;;;;;;;;;23.00;71.80;;;;;;5089636;28;19927;-82
2022/06/19 03:42:16;;;;;;;;;;;23.00;71.70;;;;;;5066956;28;19929;-82
2022/06/19 03:44:46;;;;;;;;;;;23.00;71.80;;;;;;5086439;28;19924;-82
2022/06/19 03:47:16;;;;;;;;;;;22.90;71.80;;;;;;5086260;28;20011;-82
2022/06/19 03:49:43;;;;;;;;;;;22.90;71.90;;;;;;5087895;28;19932;-82
2022/06/19 03:52:10;;;;;;;;;;;22.90;71.90;;;;;;5072493;28;19973;-82
2022/06/19 03:54:36;;;;;;;;;;;22.90;72.00;;;;;;5084136;28;19932;-82
2022/06/19 03:57:04;;;;;;;;;;;22.80;71.90;;;;;;5089371;28;20019;-81
2022/06/19 03:59:30;;;;;;;;;;;22.80;72.10;;;;;;5066701;28;19924;-82
2022/06/19 04:01:59;;;;;;;;;;;22.80;72.10;;;;;;5086280;28;20846;-82
2022/06/19 04:04:25;;;;;;;;;;;22.70;72.00;;;;;;5068088;28;20374;-81
2022/06/19 04:06:52;;;;;;;;;;;22.70;72.00;;;;;;5093879;28;19936;-82
2022/06/19 04:09:19;;;;;;;;;;;22.70;72.20;;;;;;5081446;28;19997;-82
2022/06/19 04:11:46;;;;;;;;;;;22.60;72.20;;;;;;5086061;28;20428;-82
2022/06/19 04:14:15;;;;;;;;;;;22.60;72.30;;;;;;5084212;28;19935;-82
2022/06/19 04:16:42;;;;;;;;;;;22.60;72.20;;;;;;5065379;28;19932;-82
2022/06/19 04:19:11;;;;;;;;;;;22.60;72.40;;;;;;5090071;28;19932;-82
2022/06/19 04:21:41;;;;;;;;;;;22.50;72.40;;;;;;5069392;28;19932;-82
2022/06/19 04:24:13;;;;;;;;;;;22.50;72.60;;;;;;5086568;28;19974;-82
2022/06/19 04:26:40;;;;;;;;;;;22.40;72.50;;;;;;5090637;28;19924;-82
2022/06/19 04:29:07;;;;;;;;;;;22.50;72.50;;;;;;5090618;28;19946;-82
2022/06/19 04:31:35;;;;;;;;;;;22.50;72.70;;;;;;5091913;28;20229;-82
2022/06/19 04:34:02;;;;;;;;;;;22.40;72.60;;;;;;5073263;28;20030;-82
2022/06/19 04:36:30;;;;;;;;;;;22.40;72.70;;;;;;5030015;22;19926;-81
2022/06/19 04:38:57;;;;;;;;;;;22.40;72.60;;;;;;5089164;23;20006;-81
2022/06/19 04:41:25;;;;;;;;;;;22.30;72.40;;;;;;5090726;28;19939;-81
2022/06/19 04:43:52;;;;;;;;;;;22.30;72.40;;;;;;5177924;22;20023;-81
2022/06/19 04:46:20;;;;;;;;;;;22.30;72.40;;;;;;5122853;22;19939;-81
2022/06/19 04:48:47;;;;;;;;;;;22.30;72.40;;;;;;5089752;28;20576;-82
2022/06/19 04:51:14;;;;;;;;;;;22.30;72.30;;;;;;5090129;28;20355;-81
2022/06/19 04:53:43;;;;;;;;;;;22.30;72.10;;;;;;5107365;28;20022;-81
2022/06/19 04:56:10;;;;;;;;;;;22.20;71.90;;;;;;5086934;28;20421;-81
2022/06/19 04:58:37;;;;;;;;;;;22.20;71.90;;;;;;5107202;28;20382;-81
2022/06/19 05:01:08;;;;;;;;;;;22.20;71.90;;;;;;5104668;28;19932;-81
2022/06/19 05:03:35;;;;;;;;;;;22.20;71.90;;;;;;5105948;28;19924;-82
2022/06/19 05:06:05;;;;;;;;;;;22.20;71.90;;;;;;5106357;28;19946;-82
2022/06/19 05:08:32;;;;;;;;;;;22.10;71.60;;;;;;5106275;27;20309;-81
2022/06/19 05:11:00;;;;;;;;;;;22.10;71.70;;;;;;5110227;28;19925;-81
2022/06/19 05:13:27;;;;;;;;;;;22.10;71.70;;;;;;5095824;27;19927;-82
2022/06/19 05:16:02;;;;;;;;;;;22.10;71.60;;;;;;5092354;28;19930;-82
2022/06/19 05:18:29;;;;;;;;;;;22.10;71.80;;;;;;5109725;28;19931;-81
2022/06/19 05:20:56;;;;;;;;;;;22.00;71.60;;;;;;5107795;28;19931;-81
2022/06/19 05:23:23;;;;;;;;;;;22.00;71.70;;;;;;5103092;28;20319;-81
2022/06/19 05:25:50;;;;;;;;;;;22.00;71.70;;;;;;5110924;27;20358;-82
2022/06/19 05:28:19;;;;;;;;;;;22.00;71.80;;;;;;5110428;27;19931;-82
2022/06/19 05:30:45;;;;;;;;;;;22.00;71.80;;;;;;5106354;28;19977;-81
2022/06/19 05:33:12;;;;;;;;;;;21.90;71.80;;;;;;5103721;28;20023;-81
2022/06/19 05:35:39;;;;;;;;;;;21.90;73.10;;;;;;5108119;27;19924;-82
2022/06/19 05:38:06;;;;;;;;;;;21.90;73.60;;;;;;5107231;28;20392;-81
2022/06/19 05:40:33;;;;;;;;;;;21.90;73.80;;;;;;5108671;28;20019;-81
2022/06/19 05:43:00;;;;;;;;;;;21.80;73.50;;;;;;5105066;28;19927;-81
2022/06/19 05:45:28;;;;;;;;;;;21.80;73.20;;;;;;5084374;28;19942;-82
2022/06/19 05:47:55;;;;;;;;;;;21.80;73.60;;;;;;5090317;28;19935;-81
2022/06/19 05:50:22;;;;;;;;;;;21.80;74.10;;;;;;5110130;28;19942;-81
2022/06/19 05:52:50;;;;;;;;;;;21.90;74.30;;;;;;5110256;28;19928;-81
2022/06/19 05:55:17;;;;;;;;;;;21.90;74.40;;;;;;5089003;28;19932;-81
2022/06/19 05:57:43;;;;;;;;;;;21.90;74.50;;;;;;5089823;28;19923;-81
2022/06/19 06:00:11;;;;;;;;;;;21.90;74.40;;;;;;5088310;28;19995;-81
2022/06/19 06:02:43;;;;;;;;;;;21.90;74.50;;;;;;5105536;28;19932;-81
2022/06/19 06:05:10;;;;;;;;;;;21.90;74.50;;;;;;5100363;28;21536;-81
2022/06/19 06:07:37;;;;;;;;;;;21.90;74.30;;;;;;5108070;27;19924;-82
2022/06/19 06:10:04;;;;;;;;;;;21.90;74.40;;;;;;5103146;28;20427;-82
2022/06/19 06:12:32;;;;;;;;;;;22.00;74.50;;;;;;5105096;28;20274;-82
2022/06/19 06:14:59;;;;;;;;;;;21.90;74.20;;;;;;5104028;28;20382;-81
2022/06/19 06:17:25;;;;;;;;;;;22.00;74.10;;;;;;5107446;28;19932;-82
2022/06/19 06:19:54;;;;;;;;;;;22.00;74.50;;;;;;5107999;28;19931;-82
2022/06/19 06:22:21;;;;;;;;;;;22.00;74.90;;;;;;5087267;28;20293;-81
2022/06/19 06:24:47;;;;;;;;;;;22.00;74.90;;;;;;5090526;28;20474;-82
2022/06/19 06:27:14;;;;;;;;;;;22.00;74.90;;;;;;5104658;28;19934;-81
2022/06/19 06:29:41;;;;;;;;;;;22.00;75.20;;;;;;5090761;28;20378;-81
2022/06/19 06:32:08;;;;;;;;;;;22.10;75.50;;;;;;5101459;28;23425;-82
2022/06/19 06:34:35;;;;;;;;;;;22.10;75.50;;;;;;5087395;28;19935;-82
2022/06/19 06:37:03;;;;;;;;;;;22.10;75.60;;;;;;5100719;28;19924;-81
2022/06/19 06:39:30;;;;;;;;;;;22.10;75.80;;;;;;5089623;28;19924;-82
2022/06/19 06:41:57;;;;;;;;;;;22.10;75.80;;;;;;5104224;28;19976;-82
2022/06/19 06:44:24;;;;;;;;;;;22.20;76.00;;;;;;5082329;28;19928;-82
2022/06/19 06:46:51;;;;;;;;;;;22.20;76.00;;;;;;5088093;28;20364;-81
2022/06/19 06:49:17;;;;;;;;;;;22.20;75.90;;;;;;5087573;28;20007;-82
2022/06/19 06:51:44;;;;;;;;;;;22.20;76.00;;;;;;5101254;28;20374;-82
2022/06/19 06:54:13;;;;;;;;;;;22.20;76.10;;;;;;5086264;28;20013;-82
2022/06/19 06:56:39;;;;;;;;;;;22.30;76.30;;;;;;5100280;28;19928;-81
2022/06/19 06:59:06;;;;;;;;;;;22.30;76.50;;;;;;5104998;28;20168;-82
2022/06/19 07:01:35;;;;;;;;;;;22.30;76.60;;;;;;5084250;28;20410;-82
2022/06/19 07:04:02;;;;;;;;;;;22.30;76.40;;;;;;5104424;27;20423;-81
2022/06/19 07:06:30;;;;;;;;;;;22.30;77.50;;;;;;5079804;28;19927;-81
2022/06/19 07:08:57;;;;;;;;;;;22.40;76.80;;;;;;5102236;28;19928;-80
2022/06/19 07:11:26;;;;;;;;;;;22.40;77.00;;;;;;5096658;27;19946;-80
2022/06/19 07:13:56;;;;;;;;;;;22.40;77.00;;;;;;5101294;28;19924;-79
2022/06/19 07:16:24;;;;;;;;;;;22.40;77.10;;;;;;5078734;28;19928;-80
2022/06/19 07:18:52;;;;;;;;;;;22.40;77.20;;;;;;5085875;28;19962;-77
2022/06/19 07:21:19;;;;;;;;;;;22.40;77.10;;;;;;5099269;28;19939;-76
2022/06/19 07:23:45;;;;;;;;;;;22.50;78.10;;;;;;5098421;28;20301;-78
2022/06/19 07:26:15;;;;;;;;;;;22.50;77.50;;;;;;5086388;28;19938;-78
2022/06/19 07:28:44;;;;;;;;;;;22.50;77.50;;;;;;5100985;27;19932;-77
2022/06/19 07:31:11;;;;;;;;;;;22.60;77.70;;;;;;5094275;28;19972;-77
2022/06/19 07:33:39;;;;;;;;;;;22.60;77.90;;;;;;5098147;27;20026;-78
2022/06/19 07:36:06;;;;;;;;;;;22.80;78.90;;;;;;5101109;27;19927;-79
2022/06/19 07:38:33;;;;;;;;;;;22.80;78.50;;;;;;5099798;28;19931;-79
2022/06/19 07:41:00;;;;;;;;;;;22.80;78.40;;;;;;5076235;28;19924;-79
2022/06/19 07:43:27;;;;;;;;;;;23.10;80.70;;;;;;5090870;28;20798;-80
2022/06/19 07:45:56;;;;;;;;;;;23.40;80.40;;;;;;5081231;28;19962;-79
2022/06/19 07:51:07;;;;;;;;;;;23.30;80.10;;;;;;5093976;28;20400;-78
2022/06/19 07:53:34;;;;;;;;;;;23.30;80.30;;;;;;5102866;28;19924;-78
2022/06/19 07:56:01;;;;;;;;;;;23.20;80.30;;;;;;5081828;28;19942;-78
2022/06/19 07:58:28;;;;;;;;;;;23.20;79.20;;;;;;5098578;28;19939;-79
2022/06/19 08:00:56;;;;;;;;;;;23.10;80.10;;;;;;5084953;28;20382;-79
2022/06/19 08:03:23;;;;;;;;;;;23.30;80.90;;;;;;5093217;28;19928;-78
2022/06/19 08:05:50;;;;;;;;;;;23.60;81.50;;;;;;5094880;28;19988;-78
2022/06/19 08:08:18;;;;;;;;;;;23.90;81.50;;;;;;5093492;28;19939;-79
2022/06/19 08:10:45;;;;;;;;;;;23.90;80.90;;;;;;5090936;28;19947;-80
2022/06/19 08:13:13;;;;;;;;;;;23.90;80.80;;;;;;5083178;28;20076;-79
2022/06/19 08:15:39;;;;;;;;;;;23.90;80.90;;;;;;5097263;28;19931;-80
2022/06/19 08:18:09;;;;;;;;;;;24.00;81.00;;;;;;5098548;28;19991;-78
2022/06/19 08:20:36;;;;;;;;;;;24.00;81.20;;;;;;5078928;28;20512;-78
2022/06/19 08:23:05;;;;;;;;;;;24.10;81.10;;;;;;5097582;28;19932;-78
2022/06/19 08:25:32;;;;;;;;;;;24.20;81.60;;;;;;5081262;28;20328;-79
2022/06/19 08:28:00;;;;;;;;;;;24.20;81.30;;;;;;5092209;28;19923;-81
2022/06/19 08:30:29;;;;;;;;;;;24.10;81.40;;;;;;5086692;28;19932;-77
2022/06/19 08:32:56;;;;;;;;;;;24.10;81.50;;;;;;5081251;28;19931;-78
2022/06/19 08:35:24;;;;;;;;;;;24.00;81.70;;;;;;5086115;28;20031;-78
2022/06/19 08:37:54;;;;;;;;;;;24.00;81.60;;;;;;5077516;28;19939;-76
2022/06/19 08:40:29;;;;;;;;;;;24.00;81.60;;;;;;5094907;28;19923;-76
2022/06/19 08:43:03;;;;;;;;;;;24.00;81.50;;;;;;5098105;28;19931;-77
2022/06/19 08:45:38;;;;;;;;;;;24.00;81.70;;;;;;5095007;28;19932;-77
2022/06/19 08:48:16;;;;;;;;;;;24.00;81.60;;;;;;5079914;28;19934;-77
2022/06/19 08:50:49;;;;;;;;;;;24.00;81.40;;;;;;5097675;28;19924;-79
2022/06/19 08:53:27;;;;;;;;;;;24.20;81.60;;;;;;5100989;28;20019;-79
2022/06/19 08:55:58;;;;;;;;;;;24.80;80.80;;;;;;5095684;28;20852;-76
2022/06/19 08:58:28;;;;;;;;;;;25.40;80.30;;;;;;5096701;28;19924;-76
2022/06/19 09:00:58;;;;;;;;;;;25.50;79.70;;;;;;5093840;28;19935;-77
2022/06/19 09:05:36;;;;;;;;;;;25.40;80.00;;;;;;5073717;28;19924;-77
2022/06/19 09:06:20;;;;;;;;;;;25.30;80.60;;;;;;5092650;28;19935;-76
2022/06/19 09:08:52;;;;;;;;;;;25.50;80.80;;;;;;5094886;28;20354;-77
2022/06/19 09:11:29;;;;;;;;;;;25.60;80.50;;;;;;5088730;28;19931;-77
2022/06/19 09:14:06;;;;;;;;;;;25.60;80.50;;;;;;5067595;28;19932;-74
2022/06/19 09:16:36;;;;;;;;;;;25.90;80.50;;;;;;5101691;28;20739;-75
2022/06/19 09:19:07;;;;;;;;;;;26.10;79.60;;;;;;5091653;27;20386;-75
2022/06/19 09:21:38;;;;;;;;;;;26.30;79.50;;;;;;5085290;28;19946;-75
2022/06/19 09:24:14;;;;;;;;;;;26.40;79.20;;;;;;5099910;28;20390;-75
2022/06/19 09:26:43;;;;;;;;;;;26.60;78.30;;;;;;5097780;27;19931;-75
2022/06/19 09:29:11;;;;;;;;;;;26.70;77.30;;;;;;5078727;28;20401;-76
2022/06/19 09:31:42;;;;;;;;;;;26.70;76.90;;;;;;5092014;27;20507;-74
2022/06/19 09:34:12;;;;;;;;;;;26.80;76.60;;;;;;5085456;28;20381;-75
2022/06/19 09:36:42;;;;;;;;;;;26.90;76.20;;;;;;5059215;28;19942;-74
2022/06/19 09:39:11;;;;;;;;;;;27.00;76.50;;;;;;5084025;27;19957;-75
2022/06/19 09:41:40;;;;;;;;;;;27.10;76.10;;;;;;5089625;28;19924;-75
2022/06/19 09:44:10;;;;;;;;;;;27.30;76.10;;;;;;5094116;28;20305;-80
2022/06/19 09:46:40;;;;;;;;;;;27.40;75.40;;;;;;5099601;28;19932;-79
2022/06/19 09:49:11;;;;;;;;;;;27.30;77.10;;;;;;5091057;27;20007;-76
2022/06/19 09:51:42;;;;;;;;;;;27.10;77.20;;;;;;5086887;28;19950;-76
2022/06/19 09:54:13;;;;;;;;;;;27.00;77.50;;;;;;5071309;28;20404;-78
2022/06/19 09:56:43;;;;;;;;;;;26.90;78.00;;;;;;5093325;28;19932;-79
2022/06/19 09:59:12;;;;;;;;;;;26.90;77.80;;;;;;5081481;27;19931;-78
2022/06/19 10:01:41;;;;;;;;;;;26.90;77.20;;;;;;5094023;28;19928;-77
2022/06/19 10:04:11;;;;;;;;;;;27.00;76.90;;;;;;5073946;28;19943;-76
2022/06/19 10:06:40;;;;;;;;;;;26.90;77.20;;;;;;5086245;27;19928;-77
2022/06/19 10:09:16;;;;;;;;;;;26.80;77.60;;;;;;5091456;28;20450;-77
2022/06/19 10:11:43;;;;;;;;;;;26.80;77.90;;;;;;5069191;28;20098;-76
2022/06/19 10:14:13;;;;;;;;;;;26.90;76.70;;;;;;5075327;28;20350;-75
2022/06/19 10:16:44;;;;;;;;;;;;;;;;;;5071970;27;21048;-76
2022/06/19 10:19:13;;;;;;;;;;;27.70;91.30;;;;;;5078065;28;20008;-76
2022/06/19 10:24:35;;;;;;;;;;;28.20;75.10;;;;;;5077787;28;19920;-75
2022/06/19 10:27:06;;;;;;;;;;;28.40;75.20;;;;;;5088271;28;19931;-75
2022/06/19 10:29:44;;;;;;;;;;;28.40;75.40;;;;;;5087569;28;19939;-75
2022/06/19 10:32:18;;;;;;;;;;;28.40;75.70;;;;;;5093134;28;19928;-76
2022/06/19 10:34:49;;;;;;;;;;;28.40;76.60;;;;;;5068633;28;19979;-75
2022/06/19 10:37:19;;;;;;;;;;;28.60;75.70;;;;;;5089447;28;19947;-75
2022/06/19 10:39:56;;;;;;;;;;;28.90;75.00;;;;;;5101936;28;19935;-76
2022/06/19 10:42:27;;;;;;;;;;;28.70;75.40;;;;;;5090831;28;19938;-79
2022/06/19 10:45:01;;;;;;;;;;;28.50;76.60;;;;;;5077166;28;19928;-79
2022/06/19 10:47:33;;;;;;;;;;;28.20;77.60;;;;;;5097695;27;19932;-80
2022/06/19 10:50:04;;;;;;;;;;;28.10;78.70;;;;;;5096178;28;20010;-78
2022/06/19 10:52:37;;;;;;;;;;;28.10;79.60;;;;;;5089698;28;20443;-78
2022/06/19 10:55:17;;;;;;;;;;;28.10;79.40;;;;;;5078779;28;19935;-79
2022/06/19 10:57:51;;;;;;;;;;;28.30;80.40;;;;;;5091722;28;19931;-78
2022/06/19 11:00:18;;;;;;;;;;;28.40;78.60;;;;;;5099642;28;20290;-79
2022/06/19 11:05:38;;;;;;;;;;;28.30;79.00;;;;;;5088428;28;19928;-78
2022/06/19 11:08:04;;;;;;;;;;;28.30;79.20;;;;;;5095199;28;19924;-79
2022/06/19 11:10:36;;;;;;;;;;;28.30;79.20;;;;;;5087576;28;20132;-78
2022/06/19 11:13:05;;;;;;;;;;;28.20;79.30;;;;;;5085118;28;19979;-78
2022/06/19 11:15:33;;;;;;;;;;;28.10;79.40;;;;;;5083055;28;19927;-77
2022/06/19 11:18:25;;;;;;;;;;;28.00;79.40;;;;;;5095319;28;19923;-79
2022/06/19 11:21:00;;;;;;;;;;;28.00;79.60;;;;;;5084370;28;19924;-79
2022/06/19 11:23:30;;;;;;;;;;;27.90;79.80;;;;;;5092231;28;19963;-78
2022/06/19 11:26:05;;;;;;;;;;;27.90;80.10;;;;;;5096641;28;19953;-79
2022/06/19 11:28:43;;;;;;;;;;;27.90;80.10;;;;;;5097487;27;20467;-79
2022/06/19 11:31:12;;;;;;;;;;;27.90;80.10;;;;;;5068179;28;19996;-79
2022/06/19 11:33:38;;;;;;;;;;;27.90;80.40;;;;;;5069400;28;20072;-78
2022/06/19 11:36:08;;;;;;;;;;;27.90;81.00;;;;;;5092200;27;19934;-78
2022/06/19 11:38:36;;;;;;;;;;;27.90;80.30;;;;;;5092999;27;19963;-79
2022/06/19 11:41:14;;;;;;;;;;;27.90;80.20;;;;;;5091561;28;20309;-78
2022/06/19 11:43:41;;;;;;;;;;;27.90;80.20;;;;;;5093853;28;20695;-78
2022/06/19 11:46:16;;;;;;;;;;;27.90;80.20;;;;;;5092769;28;20390;-78
2022/06/19 11:48:43;;;;;;;;;;;27.90;80.20;;;;;;5087875;28;19931;-79
2022/06/19 11:51:16;;;;;;;;;;;27.90;80.10;;;;;;5093555;28;19928;-77
2022/06/19 11:53:43;;;;;;;;;;;28.00;80.10;;;;;;5083735;28;19931;-80
2022/06/19 11:56:20;;;;;;;;;;;28.00;80.10;;;;;;5085834;28;20011;-79
2022/06/19 11:58:52;;;;;;;;;;;28.00;80.30;;;;;;5089203;28;19943;-79
2022/06/19 12:01:20;;;;;;;;;;;28.00;80.40;;;;;;5073198;28;19932;-79
2022/06/19 12:03:49;;;;;;;;;;;28.10;80.60;;;;;;5086687;28;20429;-82
2022/06/19 12:06:17;;;;;;;;;;;28.10;80.30;;;;;;5091080;28;19924;-79
2022/06/19 12:08:52;;;;;;;;;;;28.10;79.60;;;;;;5084275;28;19928;-80
2022/06/19 12:11:33;;;;;;;;;;;28.20;79.10;;;;;;5081743;28;19923;-84
2022/06/19 12:14:00;;;;;;;;;;;28.30;76.80;;;;;;5088625;28;19985;-82
2022/06/19 12:16:27;;;;;;;;;;;28.40;76.30;;;;;;5093906;28;19924;-82
2022/06/19 12:18:54;;;;;;;;;;;28.40;76.20;;;;;;5086392;28;20019;-81
2022/06/19 12:21:22;;;;;;;;;;;28.50;75.90;;;;;;5096346;28;20401;-82
2022/06/19 12:23:55;;;;;;;;;;;28.50;74.70;;;;;;5091112;28;19928;-81
2022/06/19 12:26:28;;;;;;;;;;;28.60;73.70;;;;;;5080585;28;19942;-81
2022/06/19 12:28:58;;;;;;;;;;;28.60;71.80;;;;;;5102554;28;19927;-83
2022/06/19 12:31:26;;;;;;;;;;;28.70;71.00;;;;;;5092978;28;20254;-81
2022/06/19 12:33:54;;;;;;;;;;;28.70;73.70;;;;;;5092403;28;19928;-80
2022/06/19 12:36:23;;;;;;;;;;;28.80;70.70;;;;;;5095105;28;19923;-80
2022/06/19 12:38:51;;;;;;;;;;;28.90;71.30;;;;;;5096817;28;19977;-80
2022/06/19 12:41:26;;;;;;;;;;;28.90;73.20;;;;;;5090731;28;19939;-77
2022/06/19 12:44:01;;;;;;;;;;;29.10;69.70;;;;;;5096669;28;19928;-79
2022/06/19 12:46:34;;;;;;;;;;;29.90;68.20;;;;;;5079160;28;19932;-79
2022/06/19 12:49:09;;;;;;;;;;;29.70;69.20;;;;;;5097779;28;20389;-80
2022/06/19 12:51:40;;;;;;;;;;;29.60;68.30;;;;;;5099895;28;19931;-79
2022/06/19 12:54:24;;;;;;;;;;;29.60;70.00;;;;;;5104665;27;19928;-79
2022/06/19 12:57:00;;;;;;;;;;;29.60;71.60;;;;;;5082520;28;19930;-78
2022/06/19 12:59:35;;;;;;;;;;;29.50;70.10;;;;;;5091055;27;20999;-80
2022/06/19 13:02:07;;;;;;;;;;;29.50;70.10;;;;;;5098764;28;19931;-82
2022/06/19 13:04:39;;;;;;;;;;;29.60;71.90;;;;;;5098955;28;20301;-76
2022/06/19 13:07:13;;;;;;;;;;;29.80;68.50;;;;;;5099156;28;19928;-78
2022/06/19 13:09:52;;;;;;;;;;;30.40;67.10;;;;;;5092866;27;19936;-75
2022/06/19 13:12:22;;;;;;;;;;;30.80;65.30;;;;;;5094568;27;19932;-76
2022/06/19 13:15:01;;;;;;;;;;;31.10;65.90;;;;;;5091133;27;19939;-79
2022/06/19 13:17:32;;;;;;;;;;;31.30;65.30;;;;;;5098400;28;20374;-81
2022/06/19 13:20:03;;;;;;;;;;;31.70;65.60;;;;;;5096986;27;20494;-79
2022/06/19 13:22:39;;;;;;;;;;;31.40;67.40;;;;;;5091982;27;19939;-79
2022/06/19 13:25:14;;;;;;;;;;;31.20;68.10;;;;;;5098026;27;19986;-79
2022/06/19 13:27:49;;;;;;;;;;;31.40;64.60;;;;;;5081835;28;20291;-79
2022/06/19 13:30:22;;;;;;;;;;;31.40;66.70;;;;;;5076480;28;21320;-80
2022/06/19 13:32:59;;;;;;;;;;;31.20;68.10;;;;;;5103570;27;19984;-80
2022/06/19 13:35:32;;;;;;;;;;;31.10;69.20;;;;;;5104222;28;19928;-79
2022/06/19 13:38:04;;;;;;;;;;;31.00;70.00;;;;;;5078912;28;19931;-80
2022/06/19 13:40:36;;;;;;;;;;;30.90;69.70;;;;;;5092631;27;20392;-82
2022/06/19 13:43:08;;;;;;;;;;;30.90;70.20;;;;;;5084891;28;20428;-80
2022/06/19 13:45:46;;;;;;;;;;;30.90;70.30;;;;;;5094570;28;21471;-80
2022/06/19 13:48:15;;;;;;;;;;;30.90;71.10;;;;;;5098255;28;19950;-81
2022/06/19 13:50:43;;;;;;;;;;;31.00;71.00;;;;;;5091464;27;20008;-79
2022/06/19 13:53:14;;;;;;;;;;;30.90;69.60;;;;;;5080868;28;19931;-79
2022/06/19 13:55:52;;;;;;;;;;;31.00;70.30;;;;;;5094626;28;20179;-78
2022/06/19 13:58:23;;;;;;;;;;;31.10;65.90;;;;;;5093810;27;19932;-78
2022/06/19 14:00:56;;;;;;;;;;;31.20;64.70;;;;;;5088596;27;19931;-80
2022/06/19 14:06:38;;;;;;;;;;;31.90;62.30;;;;;;5091358;27;19920;-80
2022/06/19 14:09:11;;;;;;;;;;;31.80;65.00;;;;;;5098240;28;19963;-82
2022/06/19 14:14:21;;;;;;;;;;;31.60;67.40;;;;;;5077225;28;19993;-80
2022/06/19 14:16:52;;;;;;;;;;;31.50;68.50;;;;;;5097683;28;19935;-81
2022/06/19 14:19:32;;;;;;;;;;;31.50;69.00;;;;;;5082107;27;19967;-80
2022/06/19 14:22:04;;;;;;;;;;;31.50;69.20;;;;;;5092711;28;19934;-80
2022/06/19 14:24:38;;;;;;;;;;;31.50;68.60;;;;;;5074748;28;19963;-80
2022/06/19 14:27:12;;;;;;;;;;;31.50;67.70;;;;;;5091296;28;19936;-79
2022/06/19 14:29:42;;;;;;;;;;;31.60;68.20;;;;;;5095212;28;19928;-78
2022/06/19 14:32:14;;;;;;;;;;;31.70;67.90;;;;;;5099990;27;19939;-79
2022/06/19 14:34:50;;;;;;;;;;;31.70;67.30;;;;;;5097992;28;20019;-80
2022/06/19 14:37:50;;;;;;;;;;;31.80;64.60;;;;;;5096306;28;19931;-81
2022/06/19 14:40:38;;;;;;;;;;;31.90;62.70;;;;;;5101625;27;19955;-82
2022/06/19 14:43:12;;;;;;;;;;;31.90;65.70;;;;;;5095391;28;19935;-84
2022/06/19 14:45:41;;;;;;;;;;;31.90;66.10;;;;;;5107574;28;19930;-81